createdAt,value
2017-12-03T00:00:32.908Z,1010.83
2017-12-03T00:01:32.897Z,1010.80
2017-12-03T00:02:32.876Z,1010.81
2017-12-03T00:03:32.856Z,1010.75
2017-12-03T00:04:32.873Z,1010.80
2017-12-03T00:05:32.812Z,1010.76
2017-12-03T00:06:32.806Z,1010.76
2017-12-03T00:07:32.828Z,1010.72
2017-12-03T00:08:32.769Z,1010.68
2017-12-03T00:09:32.742Z,1010.70
2017-12-03T00:10:32.720Z,1010.68
2017-12-03T00:11:32.749Z,1010.67
2017-12-03T00:12:32.725Z,1010.65
2017-12-03T00:13:32.679Z,1010.63
2017-12-03T00:14:32.718Z,1010.68
2017-12-03T00:15:32.632Z,1010.70
2017-12-03T00:16:32.614Z,1010.64
2017-12-03T00:17:32.601Z,1010.67
2017-12-03T00:18:32.570Z,1010.66
2017-12-03T00:19:32.563Z,1010.62
2017-12-03T00:20:32.609Z,1010.62
2017-12-03T00:21:32.530Z,1010.63
2017-12-03T00:22:32.513Z,1010.62
2017-12-03T00:23:32.482Z,1010.65
2017-12-03T00:24:32.479Z,1010.60
2017-12-03T00:25:32.455Z,1010.59
2017-12-03T00:26:32.494Z,1010.65
2017-12-03T00:27:32.407Z,1010.59
2017-12-03T00:28:32.411Z,1010.58
2017-12-03T00:29:32.380Z,1010.56
2017-12-03T00:30:32.359Z,1010.53
2017-12-03T00:31:32.339Z,1010.53
2017-12-03T00:32:32.363Z,1010.55
2017-12-03T00:33:32.301Z,1010.53
2017-12-03T00:34:32.306Z,1010.50
2017-12-03T00:35:32.278Z,1010.48
2017-12-03T00:36:32.251Z,1010.46
2017-12-03T00:37:32.234Z,1010.47
2017-12-03T00:38:32.266Z,1010.43
2017-12-03T00:39:32.194Z,1010.49
2017-12-03T00:40:32.179Z,1010.46
2017-12-03T00:41:32.170Z,1010.44
2017-12-03T00:42:32.151Z,1010.38
2017-12-03T00:43:32.131Z,1010.38
2017-12-03T00:44:32.251Z,1010.41
2017-12-03T00:45:32.079Z,1010.41
2017-12-03T00:46:32.067Z,1010.44
2017-12-03T00:47:32.050Z,1010.37
2017-12-03T00:48:32.047Z,1010.37
2017-12-03T00:49:31.998Z,1010.42
2017-12-03T00:50:32.036Z,1010.38
2017-12-03T00:51:31.964Z,1010.36
2017-12-03T00:52:31.939Z,1010.40
2017-12-03T00:53:32.988Z,1010.36
2017-12-03T00:54:31.924Z,1010.34
2017-12-03T00:55:31.888Z,1010.36
2017-12-03T00:56:31.892Z,1010.37
2017-12-03T00:57:31.854Z,1010.38
2017-12-03T00:58:31.924Z,1010.37
2017-12-03T00:59:32.707Z,1010.39
2017-12-03T01:00:31.807Z,1010.32
2017-12-03T01:01:31.772Z,1010.33
2017-12-03T01:02:31.778Z,1010.35
2017-12-03T01:03:31.784Z,1010.36
2017-12-03T01:04:31.766Z,1010.39
2017-12-03T01:05:31.798Z,1010.39
2017-12-03T01:06:31.705Z,1010.37
2017-12-03T01:07:31.695Z,1010.41
2017-12-03T01:08:31.658Z,1010.43
2017-12-03T01:09:31.675Z,1010.44
2017-12-03T01:10:31.616Z,1010.43
2017-12-03T01:11:31.612Z,1010.40
2017-12-03T01:12:31.581Z,1010.46
2017-12-03T01:13:31.561Z,1010.48
2017-12-03T01:14:31.611Z,1010.43
2017-12-03T01:15:31.526Z,1010.42
2017-12-03T01:16:31.503Z,1010.42
2017-12-03T01:17:31.498Z,1010.42
2017-12-03T01:18:31.471Z,1010.37
2017-12-03T01:19:31.452Z,1010.39
2017-12-03T01:20:31.472Z,1010.36
2017-12-03T01:21:31.426Z,1010.36
2017-12-03T01:22:31.401Z,1010.37
2017-12-03T01:23:31.385Z,1010.36
2017-12-03T01:24:31.360Z,1010.31
2017-12-03T01:25:31.418Z,1010.29
2017-12-03T01:26:31.326Z,1010.32
2017-12-03T01:27:31.296Z,1010.32
2017-12-03T01:28:31.278Z,1010.32
2017-12-03T01:29:31.255Z,1010.34
2017-12-03T01:30:31.239Z,1010.30
2017-12-03T01:31:31.285Z,1010.30
2017-12-03T01:32:31.210Z,1010.27
2017-12-03T01:33:31.193Z,1010.30
2017-12-03T01:34:31.176Z,1010.23
2017-12-03T01:35:31.147Z,1010.27
2017-12-03T01:36:31.127Z,1010.21
2017-12-03T01:37:31.157Z,1010.23
2017-12-03T01:38:31.097Z,1010.23
2017-12-03T01:39:31.103Z,1010.25
2017-12-03T01:40:31.197Z,1010.22
2017-12-03T01:41:31.049Z,1010.22
2017-12-03T01:42:31.027Z,1010.27
2017-12-03T01:43:31.021Z,1010.21
2017-12-03T01:44:30.995Z,1010.24
2017-12-03T01:45:30.957Z,1010.24
2017-12-03T01:46:31.088Z,1010.29
2017-12-03T01:47:30.927Z,1010.20
2017-12-03T01:48:30.911Z,1010.23
2017-12-03T01:49:30.895Z,1010.27
2017-12-03T01:50:30.882Z,1010.16
2017-12-03T01:51:30.844Z,1010.19
2017-12-03T01:52:30.880Z,1010.25
2017-12-03T01:53:30.828Z,1010.17
2017-12-03T01:54:30.795Z,1010.15
2017-12-03T01:55:30.781Z,1010.17
2017-12-03T01:56:30.812Z,1010.14
2017-12-03T01:57:30.751Z,1010.16
2017-12-03T01:58:30.719Z,1010.16
2017-12-03T01:59:30.708Z,1010.10
2017-12-03T02:00:30.679Z,1010.09
2017-12-03T02:01:30.679Z,1010.10
2017-12-03T02:02:30.707Z,1010.12
2017-12-03T02:03:30.625Z,1010.11
2017-12-03T02:04:30.606Z,1010.07
2017-12-03T02:05:30.593Z,1010.05
2017-12-03T02:06:30.579Z,1010.14
2017-12-03T02:07:30.561Z,1010.07
2017-12-03T02:08:30.597Z,1010.06
2017-12-03T02:09:30.517Z,1010.06
2017-12-03T02:10:30.518Z,1010.00
2017-12-03T02:11:30.476Z,1010.07
2017-12-03T02:12:30.464Z,1010.06
2017-12-03T02:13:30.436Z,1010.02
2017-12-03T02:14:30.488Z,1009.99
2017-12-03T02:15:30.406Z,1009.96
2017-12-03T02:16:30.402Z,1009.89
2017-12-03T02:17:30.375Z,1009.89
2017-12-03T02:18:30.349Z,1009.85
2017-12-03T02:19:30.350Z,1009.82
2017-12-03T02:20:30.363Z,1009.83
2017-12-03T02:21:30.303Z,1009.82
2017-12-03T02:22:30.269Z,1009.83
2017-12-03T02:23:30.259Z,1009.77
2017-12-03T02:24:30.251Z,1009.77
2017-12-03T02:25:30.223Z,1009.77
2017-12-03T02:26:30.358Z,1009.72
2017-12-03T02:27:30.173Z,1009.72
2017-12-03T02:28:30.166Z,1009.63
2017-12-03T02:29:30.164Z,1009.69
2017-12-03T02:30:30.130Z,1009.70
2017-12-03T02:31:30.112Z,1009.67
2017-12-03T02:32:30.149Z,1009.66
2017-12-03T02:33:30.080Z,1009.68
2017-12-03T02:34:30.067Z,1009.64
2017-12-03T02:35:30.033Z,1009.62
2017-12-03T02:36:30.025Z,1009.62
2017-12-03T02:37:30.150Z,1009.62
2017-12-03T02:38:29.969Z,1009.62
2017-12-03T02:39:29.960Z,1009.56
2017-12-03T02:40:29.949Z,1009.57
2017-12-03T02:41:29.925Z,1009.58
2017-12-03T02:42:29.902Z,1009.54
2017-12-03T02:43:29.930Z,1009.54
2017-12-03T02:44:29.882Z,1009.52
2017-12-03T02:45:30.817Z,1009.55
2017-12-03T02:46:29.821Z,1009.47
2017-12-03T02:47:29.820Z,1009.46
2017-12-03T02:48:29.840Z,1009.48
2017-12-03T02:49:29.777Z,1009.45
2017-12-03T02:50:29.768Z,1009.47
2017-12-03T02:51:29.763Z,1009.43
2017-12-03T02:52:29.728Z,1009.45
2017-12-03T02:53:29.693Z,1009.46
2017-12-03T02:54:29.753Z,1009.42
2017-12-03T02:55:29.665Z,1009.44
2017-12-03T02:56:29.645Z,1009.38
2017-12-03T02:57:29.617Z,1009.37
2017-12-03T02:58:29.607Z,1009.39
2017-12-03T02:59:29.586Z,1009.37
2017-12-03T03:00:29.708Z,1009.39
2017-12-03T03:01:29.547Z,1009.37
2017-12-03T03:02:29.547Z,1009.29
2017-12-03T03:03:29.522Z,1009.28
2017-12-03T03:04:29.509Z,1009.28
2017-12-03T03:05:29.475Z,1009.31
2017-12-03T03:06:29.513Z,1009.29
2017-12-03T03:07:29.447Z,1009.24
2017-12-03T03:08:29.416Z,1009.23
2017-12-03T03:09:29.396Z,1009.25
2017-12-03T03:10:29.410Z,1009.29
2017-12-03T03:11:29.365Z,1009.19
2017-12-03T03:12:29.375Z,1009.27
2017-12-03T03:13:29.327Z,1009.23
2017-12-03T03:14:29.325Z,1009.23
2017-12-03T03:15:29.286Z,1009.21
2017-12-03T03:16:29.267Z,1009.23
2017-12-03T03:17:29.297Z,1009.17
2017-12-03T03:18:29.243Z,1009.19
2017-12-03T03:19:29.227Z,1009.18
2017-12-03T03:20:29.195Z,1009.22
2017-12-03T03:21:29.181Z,1009.24
2017-12-03T03:22:29.239Z,1009.21
2017-12-03T03:23:29.147Z,1009.20
2017-12-03T03:24:29.124Z,1009.20
2017-12-03T03:25:29.109Z,1009.17
2017-12-03T03:26:29.094Z,1009.19
2017-12-03T03:27:29.064Z,1009.13
2017-12-03T03:28:29.083Z,1009.15
2017-12-03T03:29:29.029Z,1009.16
2017-12-03T03:30:29.016Z,1009.14
2017-12-03T03:31:28.993Z,1009.12
2017-12-03T03:32:29.002Z,1009.10
2017-12-03T03:33:28.964Z,1009.11
2017-12-03T03:34:28.929Z,1009.09
2017-12-03T03:35:28.922Z,1009.05
2017-12-03T03:36:28.895Z,1009.10
2017-12-03T03:37:28.946Z,1009.05
2017-12-03T03:38:28.853Z,1009.11
2017-12-03T03:39:28.837Z,1009.05
2017-12-03T03:40:28.822Z,1009.09
2017-12-03T03:41:28.810Z,1009.05
2017-12-03T03:42:28.784Z,1009.01
2017-12-03T03:43:28.841Z,1009.02
2017-12-03T03:44:28.737Z,1009.01
2017-12-03T03:45:28.725Z,1008.98
2017-12-03T03:46:28.716Z,1008.97
2017-12-03T03:47:28.688Z,1009.00
2017-12-03T03:48:28.674Z,1008.94
2017-12-03T03:49:28.707Z,1009.00
2017-12-03T03:50:28.637Z,1008.94
2017-12-03T03:51:28.615Z,1008.95
2017-12-03T03:52:28.599Z,1008.98
2017-12-03T03:53:28.579Z,1008.98
2017-12-03T03:54:28.566Z,1008.94
2017-12-03T03:55:28.600Z,1008.93
2017-12-03T03:56:28.524Z,1008.94
2017-12-03T03:57:28.502Z,1008.98
2017-12-03T03:58:28.487Z,1008.90
2017-12-03T03:59:28.468Z,1008.90
2017-12-03T04:00:28.449Z,1008.90
2017-12-03T04:01:28.484Z,1008.92
2017-12-03T04:02:28.417Z,1008.90
2017-12-03T04:03:28.397Z,1008.92
2017-12-03T04:04:28.374Z,1008.91
2017-12-03T04:05:28.352Z,1008.91
2017-12-03T04:06:28.339Z,1008.86
2017-12-03T04:07:28.483Z,1008.84
2017-12-03T04:08:28.304Z,1008.83
2017-12-03T04:09:28.283Z,1008.83
2017-12-03T04:10:28.265Z,1008.80
2017-12-03T04:11:28.245Z,1008.81
2017-12-03T04:12:28.235Z,1008.83
2017-12-03T04:13:28.259Z,1008.87
2017-12-03T04:14:28.188Z,1008.81
2017-12-03T04:15:28.170Z,1008.74
2017-12-03T04:16:28.158Z,1008.76
2017-12-03T04:17:28.142Z,1008.76
2017-12-03T04:18:28.119Z,1008.74
2017-12-03T04:19:28.157Z,1008.74
2017-12-03T04:20:28.081Z,1008.72
2017-12-03T04:21:28.064Z,1008.67
2017-12-03T04:22:28.049Z,1008.69
2017-12-03T04:23:28.025Z,1008.69
2017-12-03T04:24:28.003Z,1008.71
2017-12-03T04:25:28.034Z,1008.72
2017-12-03T04:26:27.978Z,1008.66
2017-12-03T04:27:27.940Z,1008.67
2017-12-03T04:28:27.925Z,1008.67
2017-12-03T04:29:27.913Z,1008.65
2017-12-03T04:30:27.886Z,1008.68
2017-12-03T04:31:27.911Z,1008.64
2017-12-03T04:32:27.859Z,1008.62
2017-12-03T04:33:27.844Z,1008.66
2017-12-03T04:34:27.821Z,1008.62
2017-12-03T04:35:27.824Z,1008.64
2017-12-03T04:36:27.782Z,1008.62
2017-12-03T04:37:27.764Z,1008.63
2017-12-03T04:38:27.809Z,1008.65
2017-12-03T04:39:27.722Z,1008.69
2017-12-03T04:40:27.710Z,1008.60
2017-12-03T04:41:27.691Z,1008.59
2017-12-03T04:42:27.671Z,1008.59
2017-12-03T04:43:27.641Z,1008.55
2017-12-03T04:44:27.662Z,1008.54
2017-12-03T04:45:27.609Z,1008.52
2017-12-03T04:46:27.589Z,1008.56
2017-12-03T04:47:27.572Z,1008.54
2017-12-03T04:48:27.559Z,1008.52
2017-12-03T04:49:27.570Z,1008.48
2017-12-03T04:50:27.519Z,1008.52
2017-12-03T04:51:27.495Z,1008.48
2017-12-03T04:52:27.484Z,1008.47
2017-12-03T04:53:27.612Z,1008.50
2017-12-03T04:54:27.445Z,1008.48
2017-12-03T04:55:27.428Z,1008.48
2017-12-03T04:56:27.415Z,1008.50
2017-12-03T04:57:27.386Z,1008.44
2017-12-03T04:58:27.375Z,1008.46
2017-12-03T04:59:27.383Z,1008.45
2017-12-03T05:00:27.340Z,1008.41
2017-12-03T05:01:27.316Z,1008.38
2017-12-03T05:02:27.295Z,1008.37
2017-12-03T05:03:27.349Z,1008.38
2017-12-03T05:04:27.260Z,1008.32
2017-12-03T05:05:27.248Z,1008.29
2017-12-03T05:06:27.234Z,1008.29
2017-12-03T05:07:27.212Z,1008.36
2017-12-03T05:08:27.184Z,1008.31
2017-12-03T05:09:27.221Z,1008.28
2017-12-03T05:10:27.145Z,1008.33
2017-12-03T05:11:27.136Z,1008.36
2017-12-03T05:12:27.109Z,1008.37
2017-12-03T05:13:27.088Z,1008.38
2017-12-03T05:14:27.072Z,1008.37
2017-12-03T05:15:27.125Z,1008.36
2017-12-03T05:16:27.043Z,1008.40
2017-12-03T05:17:27.021Z,1008.37
2017-12-03T05:18:26.996Z,1008.39
2017-12-03T05:19:26.988Z,1008.35
2017-12-03T05:20:26.976Z,1008.36
2017-12-03T05:21:26.994Z,1008.37
2017-12-03T05:22:26.925Z,1008.32
2017-12-03T05:23:26.908Z,1008.32
2017-12-03T05:24:26.894Z,1008.28
2017-12-03T05:25:26.867Z,1008.32
2017-12-03T05:26:26.855Z,1008.29
2017-12-03T05:27:26.885Z,1008.27
2017-12-03T05:28:26.815Z,1008.25
2017-12-03T05:29:26.797Z,1008.26
2017-12-03T05:30:26.771Z,1008.25
2017-12-03T05:31:26.756Z,1008.25
2017-12-03T05:32:26.737Z,1008.25
2017-12-03T05:33:26.764Z,1008.25
2017-12-03T05:34:26.703Z,1008.22
2017-12-03T05:35:26.735Z,1008.21
2017-12-03T05:36:26.668Z,1008.23
2017-12-03T05:37:26.654Z,1008.27
2017-12-03T05:38:27.328Z,1008.28
2017-12-03T05:39:26.615Z,1008.27
2017-12-03T05:40:26.598Z,1008.19
2017-12-03T05:41:26.627Z,1008.23
2017-12-03T05:42:26.557Z,1008.19
2017-12-03T05:43:26.540Z,1008.15
2017-12-03T05:44:26.515Z,1008.16
2017-12-03T05:45:26.506Z,1008.18
2017-12-03T05:46:26.475Z,1008.16
2017-12-03T05:47:26.505Z,1008.10
2017-12-03T05:48:26.438Z,1008.15
2017-12-03T05:49:26.423Z,1008.16
2017-12-03T05:50:26.421Z,1008.11
2017-12-03T05:51:26.460Z,1008.15
2017-12-03T05:52:26.368Z,1008.20
2017-12-03T05:53:26.352Z,1008.16
2017-12-03T05:54:26.333Z,1008.13
2017-12-03T05:55:26.318Z,1008.12
2017-12-03T05:56:26.296Z,1008.14
2017-12-03T05:57:26.334Z,1008.16
2017-12-03T05:58:26.260Z,1008.12
2017-12-03T05:59:26.247Z,1008.15
2017-12-03T06:00:26.231Z,1008.16
2017-12-03T06:01:26.208Z,1008.15
2017-12-03T06:02:26.198Z,1008.14
2017-12-03T06:03:26.318Z,1008.13
2017-12-03T06:04:26.153Z,1008.17
2017-12-03T06:05:26.137Z,1008.15
2017-12-03T06:06:26.107Z,1008.15
2017-12-03T06:07:26.089Z,1008.17
2017-12-03T06:08:26.090Z,1008.18
2017-12-03T06:09:26.129Z,1008.11
2017-12-03T06:10:26.039Z,1008.16
2017-12-03T06:11:26.015Z,1008.15
2017-12-03T06:12:26.002Z,1008.12
2017-12-03T06:13:25.979Z,1008.13
2017-12-03T06:14:25.964Z,1008.15
2017-12-03T06:15:26.083Z,1008.14
2017-12-03T06:16:25.935Z,1008.16
2017-12-03T06:17:25.907Z,1008.16
2017-12-03T06:18:46.887Z,1008.13
2017-12-03T06:19:25.869Z,1008.13
2017-12-03T06:20:25.855Z,1008.11
2017-12-03T06:21:25.864Z,1008.13
2017-12-03T06:22:25.820Z,1008.14
2017-12-03T06:23:25.793Z,1008.19
2017-12-03T06:24:25.773Z,1008.10
2017-12-03T06:25:25.768Z,1008.14
2017-12-03T06:26:25.742Z,1008.13
2017-12-03T06:27:25.758Z,1008.09
2017-12-03T06:28:25.704Z,1008.09
2017-12-03T06:29:25.691Z,1008.07
2017-12-03T06:30:25.812Z,1008.06
2017-12-03T06:31:25.661Z,1008.08
2017-12-03T06:32:25.633Z,1008.03
2017-12-03T06:33:25.614Z,1008.02
2017-12-03T06:34:25.590Z,1008.08
2017-12-03T06:35:25.572Z,1008.02
2017-12-03T06:36:25.587Z,1008.04
2017-12-03T06:37:25.545Z,1008.04
2017-12-03T06:38:25.519Z,1008.04
2017-12-03T06:39:25.499Z,1008.02
2017-12-03T06:40:25.484Z,1008.03
2017-12-03T06:41:25.529Z,1008.07
2017-12-03T06:42:25.444Z,1008.08
2017-12-03T06:43:25.435Z,1008.06
2017-12-03T06:44:25.414Z,1008.09
2017-12-03T06:45:25.402Z,1008.08
2017-12-03T06:46:25.365Z,1008.10
2017-12-03T06:47:25.456Z,1008.04
2017-12-03T06:48:25.341Z,1008.06
2017-12-03T06:49:25.323Z,1008.08
2017-12-03T06:50:25.301Z,1008.06
2017-12-03T06:51:25.288Z,1008.08
2017-12-03T06:52:25.266Z,1008.06
2017-12-03T06:53:25.295Z,1008.06
2017-12-03T06:54:25.235Z,1008.09
2017-12-03T06:55:32.877Z,1008.10
2017-12-03T06:56:25.202Z,1008.10
2017-12-03T06:57:25.174Z,1008.08
2017-12-03T06:58:25.303Z,1008.07
2017-12-03T06:59:25.186Z,1008.04
2017-12-03T07:00:25.114Z,1008.06
2017-12-03T07:01:25.097Z,1008.07
2017-12-03T07:02:25.082Z,1008.06
2017-12-03T07:03:25.057Z,1008.07
2017-12-03T07:04:25.035Z,1008.10
2017-12-03T07:05:25.053Z,1008.08
2017-12-03T07:06:25.000Z,1008.03
2017-12-03T07:07:24.989Z,1008.08
2017-12-03T07:08:24.968Z,1008.10
2017-12-03T07:09:24.947Z,1007.98
2017-12-03T07:10:24.962Z,1008.07
2017-12-03T07:11:24.908Z,1008.13
2017-12-03T07:12:24.896Z,1008.12
2017-12-03T07:13:24.868Z,1008.14
2017-12-03T07:14:24.881Z,1008.11
2017-12-03T07:15:24.828Z,1008.11
2017-12-03T07:16:24.812Z,1008.13
2017-12-03T07:17:24.807Z,1008.13
2017-12-03T07:18:24.780Z,1008.16
2017-12-03T07:19:24.769Z,1008.14
2017-12-03T07:20:24.779Z,1008.16
2017-12-03T07:21:24.721Z,1008.14
2017-12-03T07:22:24.696Z,1008.22
2017-12-03T07:23:24.696Z,1008.10
2017-12-03T07:24:24.697Z,1008.10
2017-12-03T07:25:24.651Z,1008.11
2017-12-03T07:26:24.630Z,1008.09
2017-12-03T07:27:24.611Z,1008.13
2017-12-03T07:28:24.596Z,1008.11
2017-12-03T07:29:24.615Z,1008.13
2017-12-03T07:30:24.556Z,1008.09
2017-12-03T07:31:24.542Z,1008.10
2017-12-03T07:32:24.522Z,1008.14
2017-12-03T07:33:24.492Z,1008.07
2017-12-03T07:34:24.533Z,1008.11
2017-12-03T07:35:24.460Z,1008.10
2017-12-03T07:36:24.450Z,1008.08
2017-12-03T07:37:24.419Z,1008.11
2017-12-03T07:38:24.408Z,1008.09
2017-12-03T07:39:24.384Z,1008.09
2017-12-03T07:40:24.403Z,1008.06
2017-12-03T07:41:24.354Z,1008.06
2017-12-03T07:42:24.338Z,1008.04
2017-12-03T07:43:24.315Z,1008.06
2017-12-03T07:44:24.440Z,1008.02
2017-12-03T07:45:24.278Z,1008.05
2017-12-03T07:46:24.255Z,1008.05
2017-12-03T07:47:24.241Z,1008.04
2017-12-03T07:48:24.224Z,1008.06
2017-12-03T07:49:24.209Z,1008.08
2017-12-03T07:50:24.241Z,1008.08
2017-12-03T07:51:24.180Z,1008.05
2017-12-03T07:52:24.148Z,1008.06
2017-12-03T07:53:24.131Z,1008.11
2017-12-03T07:54:24.124Z,1008.08
2017-12-03T07:55:24.157Z,1008.14
2017-12-03T07:56:24.120Z,1008.07
2017-12-03T07:57:24.116Z,1008.09
2017-12-03T07:58:24.047Z,1008.07
2017-12-03T07:59:24.034Z,1008.11
2017-12-03T08:00:24.042Z,1008.14
2017-12-03T08:01:23.999Z,1008.07
2017-12-03T08:02:23.970Z,1008.09
2017-12-03T08:03:23.955Z,1008.08
2017-12-03T08:04:23.943Z,1008.05
2017-12-03T08:05:24.056Z,1008.06
2017-12-03T08:06:23.907Z,1008.07
2017-12-03T08:07:23.881Z,1008.05
2017-12-03T08:08:23.854Z,1008.11
2017-12-03T08:09:23.846Z,1008.11
2017-12-03T08:10:23.819Z,1008.11
2017-12-03T08:11:23.841Z,1008.05
2017-12-03T08:12:23.793Z,1008.10
2017-12-03T08:13:23.763Z,1008.13
2017-12-03T08:14:23.787Z,1008.10
2017-12-03T08:15:23.733Z,1008.12
2017-12-03T08:16:23.765Z,1008.10
2017-12-03T08:17:23.688Z,1008.10
2017-12-03T08:18:23.683Z,1008.06
2017-12-03T08:19:23.655Z,1008.05
2017-12-03T08:20:23.632Z,1008.07
2017-12-03T08:21:23.612Z,1007.97
2017-12-03T08:22:23.661Z,1008.05
2017-12-03T08:23:23.599Z,1008.02
2017-12-03T08:24:23.569Z,1008.00
2017-12-03T08:25:24.248Z,1008.05
2017-12-03T08:26:23.531Z,1008.05
2017-12-03T08:27:23.514Z,1008.05
2017-12-03T08:28:23.554Z,1008.00
2017-12-03T08:29:23.471Z,1008.05
2017-12-03T08:30:23.456Z,1008.03
2017-12-03T08:31:23.463Z,1008.02
2017-12-03T08:32:23.419Z,1008.03
2017-12-03T08:33:23.418Z,1008.01
2017-12-03T08:34:23.464Z,1007.99
2017-12-03T08:35:23.370Z,1007.99
2017-12-03T08:36:23.384Z,1008.01
2017-12-03T08:37:23.327Z,1007.97
2017-12-03T08:38:23.304Z,1007.99
2017-12-03T08:39:23.880Z,1007.97
2017-12-03T08:40:23.325Z,1008.01
2017-12-03T08:41:23.308Z,1008.07
2017-12-03T08:42:23.249Z,1008.03
2017-12-03T08:43:23.604Z,1008.07
2017-12-03T09:11:28.767Z,1007.96
2017-12-03T09:12:27.804Z,1007.92
2017-12-03T09:13:27.792Z,1007.96
2017-12-03T09:14:28.477Z,1007.97
2017-12-03T09:15:58.343Z,1007.87
2017-12-03T09:16:27.742Z,1007.89
2017-12-03T09:17:27.730Z,1007.93
2017-12-03T09:18:27.990Z,1007.88
2017-12-03T09:19:27.623Z,1007.86
2017-12-03T09:20:27.608Z,1007.89
2017-12-03T09:21:27.597Z,1007.87
2017-12-03T09:22:27.580Z,1007.87
2017-12-03T09:23:27.591Z,1007.89
2017-12-03T09:24:27.542Z,1007.86
2017-12-03T09:25:27.521Z,1007.88
2017-12-03T09:26:27.510Z,1007.88
2017-12-03T09:27:27.484Z,1007.93
2017-12-03T09:28:27.531Z,1007.88
2017-12-03T09:29:27.444Z,1007.91
2017-12-03T09:30:27.447Z,1007.90
2017-12-03T09:31:27.409Z,1007.90
2017-12-03T09:32:27.403Z,1007.86
2017-12-03T09:33:27.376Z,1007.84
2017-12-03T09:34:27.498Z,1007.88
2017-12-03T09:35:27.344Z,1007.89
2017-12-03T09:36:27.317Z,1007.87
2017-12-03T09:37:27.299Z,1007.85
2017-12-03T09:38:27.271Z,1007.92
2017-12-03T09:39:27.271Z,1007.88
2017-12-03T09:40:27.383Z,1007.87
2017-12-03T09:41:27.221Z,1007.87
2017-12-03T09:42:27.218Z,1007.86
2017-12-03T09:43:27.188Z,1007.90
2017-12-03T09:44:27.162Z,1007.86
2017-12-03T09:45:27.169Z,1007.81
2017-12-03T09:46:27.166Z,1007.79
2017-12-03T09:47:27.113Z,1007.83
2017-12-03T09:48:27.098Z,1007.79
2017-12-03T09:49:27.073Z,1007.80
2017-12-03T09:50:27.062Z,1007.81
2017-12-03T09:51:27.179Z,1007.77
2017-12-03T09:52:27.031Z,1007.75
2017-12-03T09:53:27.019Z,1007.78
2017-12-03T09:54:26.996Z,1007.80
2017-12-03T09:55:26.968Z,1007.73
2017-12-03T09:56:26.953Z,1007.76
2017-12-03T09:57:26.964Z,1007.76
2017-12-03T09:58:26.919Z,1007.77
2017-12-03T09:59:26.897Z,1007.77
2017-12-03T10:00:26.883Z,1007.76
2017-12-03T10:01:26.903Z,1007.78
2017-12-03T10:02:26.887Z,1007.79
2017-12-03T10:03:26.881Z,1007.78
2017-12-03T10:04:26.806Z,1007.84
2017-12-03T10:05:26.787Z,1007.86
2017-12-03T10:06:26.766Z,1007.82
2017-12-03T10:07:26.751Z,1007.82
2017-12-03T10:08:26.773Z,1007.78
2017-12-03T10:09:26.871Z,1007.82
2017-12-03T10:10:26.707Z,1007.77
2017-12-03T10:11:26.683Z,1007.79
2017-12-03T10:12:26.668Z,1007.81
2017-12-03T10:13:26.668Z,1007.74
2017-12-03T10:14:26.653Z,1007.78
2017-12-03T10:15:26.631Z,1007.77
2017-12-03T10:16:26.603Z,1007.74
2017-12-03T10:17:27.200Z,1007.73
2017-12-03T10:18:26.549Z,1007.76
2017-12-03T10:19:26.533Z,1007.73
2017-12-03T10:20:26.521Z,1007.71
2017-12-03T10:21:26.500Z,1007.76
2017-12-03T10:22:26.479Z,1007.76
2017-12-03T10:23:26.526Z,1007.79
2017-12-03T10:24:26.450Z,1007.72
2017-12-03T10:25:26.532Z,1007.73
2017-12-03T10:26:26.430Z,1007.73
2017-12-03T10:27:26.492Z,1007.67
2017-12-03T10:28:26.397Z,1007.66
2017-12-03T10:29:26.410Z,1007.68
2017-12-03T10:30:26.334Z,1007.65
2017-12-03T10:31:26.323Z,1007.62
2017-12-03T10:32:29.178Z,1007.64
2017-12-03T10:33:26.287Z,1007.66
2017-12-03T10:34:26.260Z,1007.61
2017-12-03T10:35:26.287Z,1007.65
2017-12-03T10:36:26.227Z,1007.62
2017-12-03T10:37:26.208Z,1007.60
2017-12-03T10:38:26.185Z,1007.56
2017-12-03T10:39:26.237Z,1007.53
2017-12-03T10:40:26.153Z,1007.53
2017-12-03T10:41:26.144Z,1007.50
2017-12-03T10:42:26.177Z,1007.48
2017-12-03T10:43:26.323Z,1007.51
2017-12-03T10:44:26.081Z,1007.55
2017-12-03T10:45:26.216Z,1007.54
2017-12-03T10:46:49.323Z,1007.54
2017-12-03T10:47:26.123Z,1007.42
2017-12-03T10:48:26.013Z,1007.46
2017-12-03T10:49:26.008Z,1007.51
2017-12-03T10:50:25.974Z,1007.45
2017-12-03T10:51:25.997Z,1007.48
2017-12-03T10:52:25.938Z,1007.50
2017-12-03T10:53:25.921Z,1007.43
2017-12-03T10:54:25.925Z,1007.40
2017-12-03T10:55:25.874Z,1007.37
2017-12-03T10:56:25.867Z,1007.41
2017-12-03T10:57:25.921Z,1007.36
2017-12-03T10:58:25.819Z,1007.39
2017-12-03T10:59:25.801Z,1007.31
2017-12-03T11:00:26.043Z,1007.35
2017-12-03T11:01:25.772Z,1007.30
2017-12-03T11:02:25.770Z,1007.28
2017-12-03T11:03:26.814Z,1007.28
2017-12-03T11:04:27.159Z,1007.25
2017-12-03T11:05:26.018Z,1007.32
2017-12-03T11:06:26.412Z,1007.37
2017-12-03T11:07:26.438Z,1007.32
2017-12-03T11:08:25.750Z,1007.22
2017-12-03T11:09:26.482Z,1007.28
2017-12-03T11:10:26.114Z,1007.24
2017-12-03T11:11:25.857Z,1007.26
2017-12-03T11:12:25.754Z,1007.24
2017-12-03T11:13:25.635Z,1007.27
2017-12-03T11:14:25.743Z,1007.26
2017-12-03T11:15:25.884Z,1007.26
2017-12-03T11:16:25.714Z,1007.16
2017-12-03T11:17:25.621Z,1007.28
2017-12-03T11:18:25.891Z,1007.28
2017-12-03T11:19:25.825Z,1007.29
2017-12-03T11:20:26.234Z,1007.28
2017-12-03T11:21:25.552Z,1007.29
2017-12-03T11:22:25.813Z,1007.28
2017-12-03T11:23:25.546Z,1007.25
2017-12-03T11:24:25.518Z,1007.27
2017-12-03T11:25:25.698Z,1007.17
2017-12-03T11:26:25.505Z,1007.24
2017-12-03T11:27:25.450Z,1007.20
2017-12-03T11:28:26.053Z,1007.20
2017-12-03T11:29:25.501Z,1007.22
2017-12-03T11:30:25.402Z,1007.23
2017-12-03T11:31:25.821Z,1007.19
2017-12-03T11:32:26.022Z,1007.19
2017-12-03T11:33:25.492Z,1007.18
2017-12-03T11:34:25.264Z,1007.19
2017-12-03T11:35:25.535Z,1007.19
2017-12-03T11:36:25.336Z,1007.16
2017-12-03T11:37:25.324Z,1007.17
2017-12-03T11:38:25.257Z,1007.17
2017-12-03T11:39:25.120Z,1007.10
2017-12-03T11:40:25.308Z,1007.10
2017-12-03T11:41:25.175Z,1007.09
2017-12-03T11:42:25.421Z,1007.11
2017-12-03T11:43:25.215Z,1007.07
2017-12-03T11:44:25.066Z,1007.11
2017-12-03T11:45:25.209Z,1007.05
2017-12-03T11:46:25.084Z,1006.99
2017-12-03T11:47:25.136Z,1006.99
2017-12-03T11:48:25.333Z,1006.98
2017-12-03T11:49:24.981Z,1006.95
2017-12-03T11:50:24.992Z,1006.93
2017-12-03T11:51:25.111Z,1006.95
2017-12-03T11:52:24.878Z,1006.94
2017-12-03T11:53:25.096Z,1006.99
2017-12-03T11:54:25.341Z,1006.95
2017-12-03T11:55:24.880Z,1006.91
2017-12-03T11:56:25.010Z,1006.90
2017-12-03T11:57:24.881Z,1006.88
2017-12-03T11:58:24.865Z,1006.93
2017-12-03T11:59:24.890Z,1006.91
2017-12-03T12:00:24.839Z,1006.88
2017-12-03T12:01:24.898Z,1006.97
2017-12-03T12:02:24.881Z,1006.90
2017-12-03T12:03:24.691Z,1006.86
2017-12-03T12:04:24.878Z,1006.91
2017-12-03T12:05:25.105Z,1006.89
2017-12-03T12:06:24.714Z,1006.86
2017-12-03T12:07:24.599Z,1006.87
2017-12-03T12:08:24.688Z,1006.86
2017-12-03T12:09:24.660Z,1006.88
2017-12-03T12:10:24.754Z,1006.85
2017-12-03T12:11:24.587Z,1006.88
2017-12-03T12:12:24.676Z,1006.83
2017-12-03T12:13:25.031Z,1006.87
2017-12-03T12:14:24.498Z,1006.86
2017-12-03T12:15:24.544Z,1006.81
2017-12-03T12:16:24.652Z,1006.84
2017-12-03T12:17:24.494Z,1006.89
2017-12-03T12:18:24.481Z,1006.86
2017-12-03T12:19:24.492Z,1006.82
2017-12-03T12:20:24.520Z,1006.81
2017-12-03T12:21:24.789Z,1006.83
2017-12-03T12:22:24.928Z,1006.78
2017-12-03T12:23:24.398Z,1006.80
2017-12-03T12:24:24.333Z,1006.81
2017-12-03T12:25:24.553Z,1006.85
2017-12-03T12:26:25.033Z,1006.80
2017-12-03T12:27:24.745Z,1006.79
2017-12-03T12:28:24.340Z,1006.74
2017-12-03T12:29:24.362Z,1006.74
2017-12-03T12:30:24.323Z,1006.71
2017-12-03T12:31:24.410Z,1006.73
2017-12-03T12:32:24.351Z,1006.73